地図

経路データ

SID SEASON NUMBER BASIN SUBBASIN NAME ISO_TIME NATURE LAT LON WMO_WIND WMO_PRES WMO_AGENCY TRACK_TYPE DIST2LAND LANDFALL IFLAG USA_AGENCY USA_ATCF_ID USA_LAT USA_LON USA_RECORD USA_STATUS USA_WIND USA_PRES USA_SSHS USA_R34_NE USA_R34_SE USA_R34_SW USA_R34_NW USA_R50_NE USA_R50_SE USA_R50_SW USA_R50_NW USA_R64_NE USA_R64_SE USA_R64_SW USA_R64_NW USA_POCI USA_ROCI USA_RMW USA_EYE TOKYO_LAT TOKYO_LON TOKYO_GRADE TOKYO_WIND TOKYO_PRES TOKYO_R50_DIR TOKYO_R50_LONG TOKYO_R50_SHORT TOKYO_R30_DIR TOKYO_R30_LONG TOKYO_R30_SHORT TOKYO_LAND CMA_LAT CMA_LON CMA_CAT CMA_WIND CMA_PRES HKO_LAT HKO_LON HKO_CAT HKO_WIND HKO_PRES NEWDELHI_LAT NEWDELHI_LON NEWDELHI_GRADE NEWDELHI_WIND NEWDELHI_PRES NEWDELHI_CI NEWDELHI_DP NEWDELHI_POCI REUNION_LAT REUNION_LON REUNION_TYPE REUNION_WIND REUNION_PRES REUNION_TNUM REUNION_CI REUNION_RMW REUNION_R34_NE REUNION_R34_SE REUNION_R34_SW REUNION_R34_NW REUNION_R50_NE REUNION_R50_SE REUNION_R50_SW REUNION_R50_NW REUNION_R64_NE REUNION_R64_SE REUNION_R64_SW REUNION_R64_NW BOM_LAT BOM_LON BOM_TYPE BOM_WIND BOM_PRES BOM_TNUM BOM_CI BOM_RMW BOM_R34_NE BOM_R34_SE BOM_R34_SW BOM_R34_NW BOM_R50_NE BOM_R50_SE BOM_R50_SW BOM_R50_NW BOM_R64_NE BOM_R64_SE BOM_R64_SW BOM_R64_NW BOM_ROCI BOM_POCI BOM_EYE BOM_POS_METHOD BOM_PRES_METHOD NADI_LAT NADI_LON NADI_CAT NADI_WIND NADI_PRES WELLINGTON_LAT WELLINGTON_LON WELLINGTON_WIND WELLINGTON_PRES DS824_LAT DS824_LON DS824_STAGE DS824_WIND DS824_PRES TD9636_LAT TD9636_LON TD9636_STAGE TD9636_WIND TD9636_PRES TD9635_LAT TD9635_LON TD9635_WIND TD9635_PRES TD9635_ROCI NEUMANN_LAT NEUMANN_LON NEUMANN_CLASS NEUMANN_WIND NEUMANN_PRES MLC_LAT MLC_LON MLC_CLASS MLC_WIND MLC_PRES USA_GUST BOM_GUST BOM_GUST_PER REUNION_GUST REUNION_GUST_PER USA_SEAHGT USA_SEARAD_NE USA_SEARAD_SE USA_SEARAD_SW USA_SEARAD_NW STORM_SPEED STORM_DIR
1930219N20144 1930 39 WP MM NOT_NAMED 1930-08-06 22:00:00 NR 19.7000 144.200 main 1741 1711 __________O___ -1 19.7000 144.200 7 9 313
1930219N20144 1930 39 WP MM NOT_NAMED 1930-08-07 00:00:00 NR 19.9090 143.960 main 1711 1663 __________P___ -1 19.9090 143.960 7 9 313
1930219N20144 1930 39 WP MM NOT_NAMED 1930-08-07 03:00:00 NR 20.2127 143.608 main 1663 1619 __________P___ -1 20.2127 143.608 7 9 312
1930219N20144 1930 39 WP MM NOT_NAMED 1930-08-07 06:00:00 NR 20.4915 143.279 main 1619 1585 __________P___ -1 20.4915 143.279 7 8 312
1930219N20144 1930 39 WP MM NOT_NAMED 1930-08-07 09:00:00 NR 20.7312 142.987 main 1585 1571 __________P___ -1 20.7312 142.987 7 7 311
1930219N20144 1930 39 WP MM NOT_NAMED 1930-08-07 10:00:00 NR 20.8000 142.900 main 1571 1552 __________O___ -1 20.8000 142.900 7 6 310
1930219N20144 1930 39 WP MM NOT_NAMED 1930-08-07 12:00:00 NR 20.9205 142.742 main 1552 1523 __________P___ -1 20.9205 142.742 7 6 308
1930219N20144 1930 39 WP MM NOT_NAMED 1930-08-07 15:00:00 NR 21.0821 142.514 main 1523 1490 __________P___ -1 21.0821 142.514 7 6 306
1930219N20144 1930 39 WP MM NOT_NAMED 1930-08-07 18:00:00 NR 21.2602 142.241 main 1490 1457 __________P___ -1 21.2602 142.241 7 7 304
1930219N20144 1930 39 WP MM NOT_NAMED 1930-08-07 21:00:00 NR 21.4992 141.861 main 1457 1439 __________P___ -1 21.4992 141.861 7 9 304
1930219N20144 1930 39 WP MM NOT_NAMED 1930-08-07 22:00:00 NR 21.6000 141.700 main 1439 1392 __________O___ -1 21.6000 141.700 7 13 306
1930219N20144 1930 39 WP MM NOT_NAMED 1930-08-08 00:00:00 NR 21.8619 141.314 main 1392 1325 __________P___ -1 21.8619 141.314 7 15 306
1930219N20144 1930 39 WP MM NOT_NAMED 1930-08-08 03:00:00 NR 22.3239 140.614 main 1325 1246 __________P___ -1 22.3239 140.614 7 17 305
1930219N20144 1930 39 WP MM NOT_NAMED 1930-08-08 06:00:00 NR 22.8303 139.801 main 1246 1167 __________P___ -1 22.8303 139.801 7 19 303
1930219N20144 1930 39 WP MM NOT_NAMED 1930-08-08 09:00:00 NR 23.3379 138.909 main 1167 1137 __________P___ -1 23.3379 138.909 7 19 301
1930219N20144 1930 39 WP MM NOT_NAMED 1930-08-08 10:00:00 NR 23.5000 138.600 main 1131 1062 __________O___ -1 23.5000 138.600 7 20 298
1930219N20144 1930 39 WP MM NOT_NAMED 1930-08-08 12:00:00 NR 23.8146 137.942 main 1062 958 __________P___ -1 23.8146 137.942 7 21 296
1930219N20144 1930 39 WP MM NOT_NAMED 1930-08-08 15:00:00 NR 24.2676 136.903 main 958 868 __________P___ -1 24.2676 136.903 7 21 295
1930219N20144 1930 39 WP MM NOT_NAMED 1930-08-08 18:00:00 NR 24.6738 135.881 main 868 791 __________P___ -1 24.6738 135.881 7 19 293
1930219N20144 1930 39 WP MM NOT_NAMED 1930-08-08 21:00:00 NR 25.0084 134.965 main 791 766 __________P___ -1 25.0084 134.965 7 17 292
1930219N20144 1930 39 WP MM NOT_NAMED 1930-08-08 22:00:00 NR 25.1000 134.700 main 766 727 __________O___ -1 25.1000 134.700 3 13 291
1930219N20144 1930 39 WP MM NOT_NAMED 1930-08-09 00:00:00 NR 25.2511 134.275 main 727 694 __________P___ -1 25.2511 134.275 3 11 290
1930219N20144 1930 39 WP MM NOT_NAMED 1930-08-09 03:00:00 NR 25.4111 133.772 main 694 668 __________P___ -1 25.4111 133.772 3 9 288
1930219N20144 1930 39 WP MM NOT_NAMED 1930-08-09 06:00:00 NR 25.5131 133.375 main 668 643 __________P___ -1 25.5131 133.375 3 7 284
1930219N20144 1930 39 WP MM NOT_NAMED 1930-08-09 09:00:00 NR 25.5810 133.020 main 643 640 __________P___ -1 25.5810 133.020 3 7 281
1930219N20144 1930 39 WP MM NOT_NAMED 1930-08-09 10:00:00 NR 25.6000 132.900 main 640 620 __________O___ -1 25.6000 132.900 4 8 281
1930219N20144 1930 39 WP MM NOT_NAMED 1930-08-09 12:00:00 NR 25.6557 132.595 main 620 607 __________P___ -1 25.6557 132.595 4 8 280
1930219N20144 1930 39 WP MM NOT_NAMED 1930-08-09 15:00:00 NR 25.7205 132.144 main 607 588 __________P___ -1 25.7205 132.144 4 8 278
1930219N20144 1930 39 WP MM NOT_NAMED 1930-08-09 18:00:00 NR 25.7655 131.714 main 588 583 __________P___ -1 25.7655 131.714 4 7 276
1930219N20144 1930 39 WP MM NOT_NAMED 1930-08-09 21:00:00 NR 25.7938 131.320 main 583 582 __________P___ -1 25.7938 131.320 4 7 274
1930219N20144 1930 39 WP MM NOT_NAMED 1930-08-09 22:00:00 NR 25.8000 131.200 main 582 581 __________O___ -1 25.8000 131.200 4 6 272
1930219N20144 1930 39 WP MM NOT_NAMED 1930-08-10 00:00:00 NR 25.8031 130.977 main 581 580 __________P___ -1 25.8031 130.977 4 6 269
1930219N20144 1930 39 WP MM NOT_NAMED 1930-08-10 03:00:00 NR 25.7954 130.680 main 580 580 __________P___ -1 25.7954 130.680 4 5 268
1930219N20144 1930 39 WP MM NOT_NAMED 1930-08-10 06:00:00 NR 25.7866 130.418 main 581 581 __________P___ -1 25.7866 130.418 4 5 270
1930219N20144 1930 39 WP MM NOT_NAMED 1930-08-10 09:00:00 NR 25.7923 130.177 main 582 582 __________P___ -1 25.7923 130.177 4 4 273
1930219N20144 1930 39 WP MM NOT_NAMED 1930-08-10 10:00:00 NR 25.8000 130.100 main 583 583 __________O___ -1 25.8000 130.100 4 5 275
1930219N20144 1930 39 WP MM NOT_NAMED 1930-08-10 12:00:00 NR 25.8119 129.905 main 585 585 __________P___ -1 25.8119 129.905 4 5 276
1930219N20144 1930 39 WP MM NOT_NAMED 1930-08-10 15:00:00 NR 25.8483 129.624 main 590 579 __________P___ -1 25.8483 129.624 4 5 283
1930219N20144 1930 39 WP MM NOT_NAMED 1930-08-10 18:00:00 NR 25.9206 129.387 main 583 574 __________P___ -1 25.9206 129.387 4 4 299
1930219N20144 1930 39 WP MM NOT_NAMED 1930-08-10 21:00:00 NR 26.0445 129.229 main 577 566 __________P___ -1 26.0445 129.229 4 4 317
1930219N20144 1930 39 WP MM NOT_NAMED 1930-08-10 22:00:00 NR 26.1000 129.200 main 566 555 __________O___ -1 26.1000 129.200 4 4 351
1930219N20144 1930 39 WP MM NOT_NAMED 1930-08-11 00:00:00 NR 26.2401 129.189 main 555 520 __________P___ -1 26.2401 129.189 4 5 8
1930219N20144 1930 39 WP MM NOT_NAMED 1930-08-11 03:00:00 NR 26.5011 129.256 main 520 485 __________P___ -1 26.5011 129.256 4 6 18
1930219N20144 1930 39 WP MM NOT_NAMED 1930-08-11 06:00:00 NR 26.7977 129.388 main 485 450 __________P___ -1 26.7977 129.388 4 7 23
1930219N20144 1930 39 WP MM NOT_NAMED 1930-08-11 09:00:00 NR 27.1018 129.547 main 450 437 __________P___ -1 27.1018 129.547 4 7 25
1930219N20144 1930 39 WP MM NOT_NAMED 1930-08-11 10:00:00 NR 27.2000 129.600 main 437 413 __________O___ -1 27.2000 129.600 4 6 26
1930219N20144 1930 39 WP MM NOT_NAMED 1930-08-11 12:00:00 NR 27.3870 129.699 main 413 389 __________P___ -1 27.3870 129.699 4 6 25
1930219N20144 1930 39 WP MM NOT_NAMED 1930-08-11 15:00:00 NR 27.6475 129.832 main 389 352 __________P___ -1 27.6475 129.832 4 6 24
1930219N20144 1930 39 WP MM NOT_NAMED 1930-08-11 18:00:00 NR 27.8904 129.951 main 352 328 __________P___ -1 27.8904 129.951 4 5 24
1930219N20144 1930 39 WP MM NOT_NAMED 1930-08-11 21:00:00 NR 28.1233 130.063 main 328 317 __________P___ -1 28.1233 130.063 4 5 23
1930219N20144 1930 39 WP MM NOT_NAMED 1930-08-11 22:00:00 NR 28.2000 130.100 main 317 __________O___ -1 28.2000 130.100 4 5 30

デジタル台風データ・検索

IBTrACS Databaseについて

本データベースは、米国NOAAが公開する1842年以降の世界の熱帯低気圧のベストトラックデータアーカイブInternational Best Track Archive for Climate Stewardship (IBTrACS)を、ウェブで閲覧しやすい形式に変換したものです。

最終更新日:2021-10-21